Home   Weather   USA   St Clair   Past weeks
Flag for USA

Past Weather in St Clair, Missouri, USA — Yesterday and Last 2 Weeks

Currently: 50 °F. Cool. (Weather station: Washington Regional Airport, USA). See more current weather

Past Weather in St Clair — Graph

°F

St Clair Temperature Yesterday

Maximum temperature yesterday: 48 °F (at 12:15 am)
Minimum temperature yesterday: 45 °F (at 4:55 am)
Average temperature yesterday: 46 °F

High & Low Weather Summary for the Past Weeks

 TemperatureHumidityPressure
High66 °F (Nov 29, 11:55 am)100% (Nov 24, 11:15 am)30.54 "Hg (Nov 24, 11:15 am)
Low19 °F (Dec 1, 2:55 am)31% (Dec 1, 1:35 pm)29.37 "Hg (Nov 27, 3:15 am)
Average42 °F81%30.07 "Hg
* Reported Nov 24 11:15 am — Dec 9 11:35 am, St Clair. Weather by CustomWeather, © 2022

Note: Actual official high and low records may vary slightly from our data, if they occured in-between our weather recording intervals... More about our weather records

St Clair Weather History for the Previous 24 Hours

Scroll right to see more
 ConditionsComfort  
Time TempWeatherWind HumidityBarometerVisibility
11:35 am
Fri, Dec 9
50 °FCool.13 mph76%30.11 "Hg10 mi
11:15 am50 °FCool.13 mph76%30.11 "Hg10 mi
6:35 am50 °FPassing clouds.No wind100%30.07 "Hg8 mi
6:15 am50 °FPartly cloudy.No wind100%30.07 "Hg7 mi
5:55 am50 °FCool.No wind100%30.06 "Hg8 mi
5:35 am48 °FFog.No wind100%30.06 "Hg6 mi
5:15 am48 °FFog.6 mph100%30.06 "Hg6 mi
4:55 am48 °FFog.No wind100%30.06 "Hg6 mi
4:35 am48 °FFog.No wind100%30.06 "Hg6 mi
4:15 am48 °FFog.6 mph100%30.06 "Hg5 mi
3:35 am48 °FFog.6 mph100%30.07 "Hg4 mi
2:55 am46 °FFog.3 mph100%30.09 "Hg3 mi
2:35 am46 °FFog.No wind100%30.10 "Hg5 mi
2:15 am46 °FFog.No wind100%30.10 "Hg5 mi
1:55 am46 °FLight rain. Fog.8 mph100%30.09 "Hg3 mi
1:35 am46 °FMostly cloudy.6 mph100%30.09 "Hg7 mi
12:55 am46 °FFog.7 mph100%30.10 "Hg2 mi
12:35 am46 °FFog.7 mph100%30.09 "Hg2 mi
12:15 am46 °FFog.9 mph100%30.10 "Hg2 mi
11:35 pm
Thu, Dec 8
46 °FLight rain. Fog.No wind100%30.11 "Hg3 mi
11:15 pm46 °FLight rain. Fog.No wind100%30.13 "Hg3 mi
10:15 pm46 °FCool.No wind100%30.15 "Hg8 mi
9:55 pm46 °FCool.No wind100%30.15 "Hg7 mi
9:35 pm46 °FCool.No wind100%30.16 "Hg7 mi
9:15 pm46 °FFog.5 mph100%30.15 "Hg6 mi
8:55 pm46 °FFog.7 mph100%30.15 "Hg4 mi
8:35 pm46 °FFog.6 mph100%30.16 "Hg3 mi
8:15 pm46 °FFog.7 mph100%30.16 "Hg3 mi
7:35 pm46 °FFog.No wind100%30.17 "Hg2 mi
7:15 pm46 °FFog.No wind100%30.17 "Hg2 mi
6:55 pm46 °FFog.6 mph100%30.17 "Hg3 mi
Weather by CustomWeather, © 2022

See weather overview